Accueil
METAR-TAF:

METAR-TAF

Aéroports :

Istanbul Atatürk, Turquie

Aéroport d'Istanbul-Atatürk

latitude: 40-58N, longitude: 028-49E, altitude: 48 m

Observation

Le bulletin a été fait il y a 25 minutes, à 04:50 UTC
Vent 8 kt de nord-est
Température 25°C
Humidité 69%
Pression 1012 hPa
Visibilité 10 km ou plus
pas de nuages en-dessous de 1500 mètres et pas de cumulonimbus.

METAR: LTBA 260450Z 05008KT CAVOK 25/19 Q1012 NOSIG RMK RWY17L 04010KT 350V090 RWY05 02011KT RWY23 05010KT 020V080

Heure: 08:15 (05:15 UTC)


TAF: absent

Observations et prévisions météorologiques de plus de 4000 aéroports (messages METAR et TAF).

Les stations disponibles sont représentées par des disques jaunes et rouges sur la carte.

Passer la souris dessus pour voir le nom de la station.

Cliquer dessus pour voir les observations et prévisions météorologiques.

Pour changer de carte: cliquez sur les boutons verts avec une croix noire pour zoomer, sur le bouton vert avec un tiret pour effectuer un zoom arrière, ou sur les flèches vertes pour les cartes adjacentes.


METAR-TAF: